sensor_id;sensor_type;location;lat;lon;timestamp;pressure;altitude;pressure_sealevel;temperature;humidity
71573;BME280;59408;51.032;9.410;2022-12-24T00:02:15;98069.41;;;8.31;99.85
71573;BME280;59408;51.032;9.410;2022-12-24T00:04:42;98067.16;;;8.33;99.02
71573;BME280;59408;51.032;9.410;2022-12-24T00:07:08;98063.63;;;8.33;99.14
71573;BME280;59408;51.032;9.410;2022-12-24T00:09:35;98071.69;;;8.29;99.57
71573;BME280;59408;51.032;9.410;2022-12-24T00:12:04;98070.13;;;8.28;99.50
71573;BME280;59408;51.032;9.410;2022-12-24T00:14:30;98053.28;;;8.23;100.00
71573;BME280;59408;51.032;9.410;2022-12-24T00:16:57;98059.38;;;8.20;99.92
71573;BME280;59408;51.032;9.410;2022-12-24T00:19:24;98062.03;;;8.16;100.00
71573;BME280;59408;51.032;9.410;2022-12-24T00:21:50;98060.44;;;8.15;100.00
71573;BME280;59408;51.032;9.410;2022-12-24T00:24:17;98066.13;;;8.10;99.89
71573;BME280;59408;51.032;9.410;2022-12-24T00:26:44;98067.03;;;8.02;100.00
71573;BME280;59408;51.032;9.410;2022-12-24T00:29:11;98067.16;;;8.06;99.49
71573;BME280;59408;51.032;9.410;2022-12-24T00:31:38;98067.03;;;8.02;99.76
71573;BME280;59408;51.032;9.410;2022-12-24T00:34:05;98065.38;;;7.97;99.97
71573;BME280;59408;51.032;9.410;2022-12-24T00:36:31;98076.88;;;8.07;98.91
71573;BME280;59408;51.032;9.410;2022-12-24T00:38:58;98078.66;;;8.15;97.33
71573;BME280;59408;51.032;9.410;2022-12-24T00:41:24;98078.22;;;8.13;97.37
71573;BME280;59408;51.032;9.410;2022-12-24T00:43:52;98078.91;;;8.10;97.75
71573;BME280;59408;51.032;9.410;2022-12-24T00:46:21;98078.13;;;8.09;97.33
71573;BME280;59408;51.032;9.410;2022-12-24T00:48:48;98095.56;;;8.08;97.51
71573;BME280;59408;51.032;9.410;2022-12-24T00:51:15;98086.63;;;8.08;97.09
71573;BME280;59408;51.032;9.410;2022-12-24T00:53:42;98090.00;;;8.05;97.71
71573;BME280;59408;51.032;9.410;2022-12-24T00:56:08;98100.88;;;8.05;97.22
71573;BME280;59408;51.032;9.410;2022-12-24T00:58:35;98095.09;;;8.06;96.66
71573;BME280;59408;51.032;9.410;2022-12-24T01:01:03;98092.72;;;8.05;96.68
71573;BME280;59408;51.032;9.410;2022-12-24T01:03:32;98117.28;;;8.08;96.25
71573;BME280;59408;51.032;9.410;2022-12-24T01:05:58;98113.53;;;8.13;95.69
71573;BME280;59408;51.032;9.410;2022-12-24T01:08:25;98115.91;;;8.14;95.39
71573;BME280;59408;51.032;9.410;2022-12-24T01:10:51;98133.78;;;8.15;95.40
71573;BME280;59408;51.032;9.410;2022-12-24T01:13:19;98130.72;;;8.17;95.25
71573;BME280;59408;51.032;9.410;2022-12-24T01:15:46;98129.38;;;8.11;95.58
71573;BME280;59408;51.032;9.410;2022-12-24T01:18:12;98127.25;;;8.04;96.13
71573;BME280;59408;51.032;9.410;2022-12-24T01:20:41;98127.38;;;7.95;96.94
71573;BME280;59408;51.032;9.410;2022-12-24T01:23:08;98140.16;;;7.95;96.78
71573;BME280;59408;51.032;9.410;2022-12-24T01:25:36;98157.56;;;8.06;95.27
71573;BME280;59408;51.032;9.410;2022-12-24T01:28:03;98151.81;;;8.08;94.73
71573;BME280;59408;51.032;9.410;2022-12-24T01:30:29;98157.56;;;8.06;94.69
71573;BME280;59408;51.032;9.410;2022-12-24T01:32:56;98156.31;;;8.04;94.69
71573;BME280;59408;51.032;9.410;2022-12-24T01:35:22;98157.72;;;7.97;94.32
71573;BME280;59408;51.032;9.410;2022-12-24T01:37:51;98161.31;;;8.01;93.64
71573;BME280;59408;51.032;9.410;2022-12-24T01:40:18;98165.84;;;7.97;93.46
71573;BME280;59408;51.032;9.410;2022-12-24T01:42:47;98159.84;;;8.04;92.80
71573;BME280;59408;51.032;9.410;2022-12-24T01:45:46;98186.78;;;8.09;92.58
71573;BME280;59408;51.032;9.410;2022-12-24T01:48:18;98181.88;;;8.15;92.16
71573;BME280;59408;51.032;9.410;2022-12-24T01:50:47;98179.38;;;8.22;91.98
71573;BME280;59408;51.032;9.410;2022-12-24T01:53:17;98183.66;;;8.23;91.30
71573;BME280;59408;51.032;9.410;2022-12-24T01:55:45;98191.63;;;8.16;92.03
71573;BME280;59408;51.032;9.410;2022-12-24T01:58:13;98187.66;;;8.13;92.00
71573;BME280;59408;51.032;9.410;2022-12-24T02:00:41;98197.03;;;8.16;91.27
71573;BME280;59408;51.032;9.410;2022-12-24T02:03:08;98194.56;;;8.11;91.71
71573;BME280;59408;51.032;9.410;2022-12-24T02:05:41;98198.28;;;8.18;90.82
71573;BME280;59408;51.032;9.410;2022-12-24T02:08:10;98198.97;;;8.15;90.68
71573;BME280;59408;51.032;9.410;2022-12-24T02:10:38;98210.84;;;8.11;90.99
71573;BME280;59408;51.032;9.410;2022-12-24T02:13:06;98218.13;;;8.07;91.29
71573;BME280;59408;51.032;9.410;2022-12-24T02:15:38;98215.41;;;8.07;91.27
71573;BME280;59408;51.032;9.410;2022-12-24T02:18:19;98226.47;;;8.01;91.21
71573;BME280;59408;51.032;9.410;2022-12-24T02:21:03;98224.91;;;8.00;91.26
71573;BME280;59408;51.032;9.410;2022-12-24T02:23:53;98220.63;;;7.99;90.80
71573;BME280;59408;51.032;9.410;2022-12-24T02:26:35;98222.06;;;8.09;89.70
71573;BME280;59408;51.032;9.410;2022-12-24T02:29:20;98231.56;;;8.03;90.18
71573;BME280;59408;51.032;9.410;2022-12-24T02:31:56;98249.91;;;8.06;89.53
71573;BME280;59408;51.032;9.410;2022-12-24T02:34:30;98250.81;;;8.10;89.21
71573;BME280;59408;51.032;9.410;2022-12-24T02:37:02;98247.06;;;8.02;89.53
71573;BME280;59408;51.032;9.410;2022-12-24T02:39:35;98255.34;;;7.94;89.93
71573;BME280;59408;51.032;9.410;2022-12-24T02:42:05;98255.25;;;7.78;90.65
71573;BME280;59408;51.032;9.410;2022-12-24T02:44:39;98262.81;;;7.73;90.58
71573;BME280;59408;51.032;9.410;2022-12-24T02:47:09;98258.19;;;7.61;91.03
71573;BME280;59408;51.032;9.410;2022-12-24T02:49:36;98264.84;;;7.51;91.58
71573;BME280;59408;51.032;9.410;2022-12-24T02:52:04;98280.97;;;7.48;91.97
71573;BME280;59408;51.032;9.410;2022-12-24T02:54:31;98279.44;;;7.59;90.78
71573;BME280;59408;51.032;9.410;2022-12-24T02:57:14;98285.78;;;7.63;90.26
71573;BME280;59408;51.032;9.410;2022-12-24T02:59:54;98294.72;;;7.63;90.18
71573;BME280;59408;51.032;9.410;2022-12-24T03:02:35;98295.50;;;7.64;90.07
71573;BME280;59408;51.032;9.410;2022-12-24T03:05:11;98294.47;;;7.69;89.68
71573;BME280;59408;51.032;9.410;2022-12-24T03:07:48;98298.66;;;7.66;89.91
71573;BME280;59408;51.032;9.410;2022-12-24T03:10:26;98309.50;;;7.66;89.79
71573;BME280;59408;51.032;9.410;2022-12-24T03:12:56;98319.38;;;7.71;89.58
71573;BME280;59408;51.032;9.410;2022-12-24T03:15:26;98316.09;;;7.77;89.02
71573;BME280;59408;51.032;9.410;2022-12-24T03:17:57;98314.16;;;7.78;88.64
71573;BME280;59408;51.032;9.410;2022-12-24T03:20:30;98304.31;;;7.85;87.88
71573;BME280;59408;51.032;9.410;2022-12-24T03:22:59;98318.13;;;7.80;88.71
71573;BME280;59408;51.032;9.410;2022-12-24T03:25:26;98329.09;;;7.84;88.53
71573;BME280;59408;51.032;9.410;2022-12-24T03:27:55;98318.13;;;7.80;89.23
71573;BME280;59408;51.032;9.410;2022-12-24T03:30:23;98340.06;;;7.75;90.66
71573;BME280;59408;51.032;9.410;2022-12-24T03:32:51;98337.44;;;7.67;91.96
71573;BME280;59408;51.032;9.410;2022-12-24T03:35:19;98342.06;;;7.54;93.12
71573;BME280;59408;51.032;9.410;2022-12-24T03:37:46;98349.84;;;7.43;94.83
71573;BME280;59408;51.032;9.410;2022-12-24T03:40:13;98348.16;;;7.30;95.92
71573;BME280;59408;51.032;9.410;2022-12-24T03:42:40;98361.16;;;7.24;97.00
71573;BME280;59408;51.032;9.410;2022-12-24T03:45:07;98363.47;;;7.14;98.43
71573;BME280;59408;51.032;9.410;2022-12-24T03:47:33;98358.13;;;7.05;100.00
71573;BME280;59408;51.032;9.410;2022-12-24T03:50:00;98379.09;;;6.96;100.00
71573;BME280;59408;51.032;9.410;2022-12-24T03:52:28;98383.78;;;6.87;100.00
71573;BME280;59408;51.032;9.410;2022-12-24T03:54:55;98383.84;;;6.78;100.00
71573;BME280;59408;51.032;9.410;2022-12-24T03:57:21;98389.34;;;6.70;100.00
71573;BME280;59408;51.032;9.410;2022-12-24T03:59:48;98381.75;;;6.63;100.00
71573;BME280;59408;51.032;9.410;2022-12-24T04:02:15;98390.84;;;6.59;100.00
71573;BME280;59408;51.032;9.410;2022-12-24T04:04:42;98396.94;;;6.56;100.00
71573;BME280;59408;51.032;9.410;2022-12-24T04:07:08;98398.09;;;6.46;100.00
71573;BME280;59408;51.032;9.410;2022-12-24T04:09:36;98395.09;;;6.39;100.00
71573;BME280;59408;51.032;9.410;2022-12-24T04:12:03;98399.13;;;6.33;100.00
71573;BME280;59408;51.032;9.410;2022-12-24T04:14:30;98400.44;;;6.27;100.00
71573;BME280;59408;51.032;9.410;2022-12-24T04:16:56;98411.75;;;6.20;100.00
71573;BME280;59408;51.032;9.410;2022-12-24T04:19:23;98410.66;;;6.12;100.00
71573;BME280;59408;51.032;9.410;2022-12-24T04:21:50;98427.56;;;6.09;100.00
71573;BME280;59408;51.032;9.410;2022-12-24T04:24:17;98421.38;;;6.09;100.00
71573;BME280;59408;51.032;9.410;2022-12-24T04:26:45;98425.66;;;6.01;100.00
71573;BME280;59408;51.032;9.410;2022-12-24T04:29:11;98428.22;;;6.06;100.00
71573;BME280;59408;51.032;9.410;2022-12-24T04:31:38;98431.09;;;6.01;100.00
71573;BME280;59408;51.032;9.410;2022-12-24T04:34:05;98425.06;;;5.96;100.00
71573;BME280;59408;51.032;9.410;2022-12-24T04:36:32;98427.75;;;5.96;100.00
71573;BME280;59408;51.032;9.410;2022-12-24T04:38:58;98429.53;;;5.92;100.00
71573;BME280;59408;51.032;9.410;2022-12-24T04:41:25;98424.25;;;5.95;100.00
71573;BME280;59408;51.032;9.410;2022-12-24T04:43:53;98417.22;;;6.03;100.00
71573;BME280;59408;51.032;9.410;2022-12-24T04:46:23;98424.56;;;6.02;100.00
71573;BME280;59408;51.032;9.410;2022-12-24T04:48:51;98423.72;;;6.10;100.00
71573;BME280;59408;51.032;9.410;2022-12-24T04:51:18;98433.00;;;6.09;100.00
71573;BME280;59408;51.032;9.410;2022-12-24T04:53:46;98434.72;;;6.14;100.00
71573;BME280;59408;51.032;9.410;2022-12-24T04:56:14;98429.28;;;6.14;100.00
71573;BME280;59408;51.032;9.410;2022-12-24T04:58:42;98432.47;;;6.16;100.00
71573;BME280;59408;51.032;9.410;2022-12-24T05:01:12;98429.91;;;6.28;100.00
71573;BME280;59408;51.032;9.410;2022-12-24T05:03:39;98431.00;;;6.27;100.00
71573;BME280;59408;51.032;9.410;2022-12-24T05:06:09;98419.97;;;6.32;100.00
71573;BME280;59408;51.032;9.410;2022-12-24T05:08:37;98424.75;;;6.35;100.00
71573;BME280;59408;51.032;9.410;2022-12-24T05:11:04;98423.97;;;6.35;100.00
71573;BME280;59408;51.032;9.410;2022-12-24T05:13:31;98425.88;;;6.34;100.00
71573;BME280;59408;51.032;9.410;2022-12-24T05:16:12;98437.63;;;6.38;100.00
71573;BME280;59408;51.032;9.410;2022-12-24T05:18:39;98439.09;;;6.36;100.00
71573;BME280;59408;51.032;9.410;2022-12-24T05:21:11;98441.81;;;6.36;100.00
71573;BME280;59408;51.032;9.410;2022-12-24T05:23:38;98436.84;;;6.38;100.00
71573;BME280;59408;51.032;9.410;2022-12-24T05:26:12;98434.59;;;6.40;100.00
71573;BME280;59408;51.032;9.410;2022-12-24T05:28:40;98440.44;;;6.50;100.00
71573;BME280;59408;51.032;9.410;2022-12-24T05:31:07;98440.59;;;6.54;100.00
71573;BME280;59408;51.032;9.410;2022-12-24T05:33:35;98444.06;;;6.63;99.86
71573;BME280;59408;51.032;9.410;2022-12-24T05:36:01;98449.47;;;6.63;100.00
71573;BME280;59408;51.032;9.410;2022-12-24T05:38:28;98461.59;;;6.57;100.00
71573;BME280;59408;51.032;9.410;2022-12-24T05:40:54;98464.78;;;6.59;100.00
71573;BME280;59408;51.032;9.410;2022-12-24T05:43:21;98469.09;;;6.60;100.00
71573;BME280;59408;51.032;9.410;2022-12-24T05:45:48;98460.97;;;6.60;100.00
71573;BME280;59408;51.032;9.410;2022-12-24T05:48:14;98466.91;;;6.54;100.00
71573;BME280;59408;51.032;9.410;2022-12-24T05:50:42;98472.78;;;6.56;100.00
71573;BME280;59408;51.032;9.410;2022-12-24T05:53:09;98480.50;;;6.45;100.00
71573;BME280;59408;51.032;9.410;2022-12-24T05:55:36;98485.09;;;6.44;100.00
71573;BME280;59408;51.032;9.410;2022-12-24T05:58:02;98482.13;;;6.37;100.00
71573;BME280;59408;51.032;9.410;2022-12-24T06:00:29;98481.16;;;6.33;100.00
71573;BME280;59408;51.032;9.410;2022-12-24T06:02:55;98482.91;;;6.29;100.00
71573;BME280;59408;51.032;9.410;2022-12-24T06:05:22;98480.41;;;6.24;100.00
71573;BME280;59408;51.032;9.410;2022-12-24T06:07:50;98473.22;;;6.20;100.00
71573;BME280;59408;51.032;9.410;2022-12-24T06:10:17;98487.28;;;6.13;100.00
71573;BME280;59408;51.032;9.410;2022-12-24T06:12:43;98487.94;;;6.10;100.00
71573;BME280;59408;51.032;9.410;2022-12-24T06:15:10;98492.06;;;6.07;100.00
71573;BME280;59408;51.032;9.410;2022-12-24T06:17:37;98494.78;;;6.07;100.00
71573;BME280;59408;51.032;9.410;2022-12-24T06:20:04;98501.63;;;6.05;100.00
71573;BME280;59408;51.032;9.410;2022-12-24T06:22:31;98494.13;;;6.02;100.00
71573;BME280;59408;51.032;9.410;2022-12-24T06:24:59;98497.50;;;5.99;100.00
71573;BME280;59408;51.032;9.410;2022-12-24T06:27:26;98480.78;;;5.97;100.00
71573;BME280;59408;51.032;9.410;2022-12-24T06:29:52;98465.50;;;5.92;100.00
71573;BME280;59408;51.032;9.410;2022-12-24T06:32:19;98481.91;;;5.87;100.00
71573;BME280;59408;51.032;9.410;2022-12-24T06:34:46;98485.25;;;5.84;100.00
71573;BME280;59408;51.032;9.410;2022-12-24T06:37:12;98485.44;;;5.79;100.00
71573;BME280;59408;51.032;9.410;2022-12-24T06:39:39;98492.16;;;5.73;100.00
71573;BME280;59408;51.032;9.410;2022-12-24T06:42:07;98494.38;;;5.71;100.00
71573;BME280;59408;51.032;9.410;2022-12-24T06:44:33;98495.66;;;5.73;100.00
71573;BME280;59408;51.032;9.410;2022-12-24T06:47:00;98506.91;;;5.75;100.00
71573;BME280;59408;51.032;9.410;2022-12-24T06:49:27;98494.50;;;5.74;100.00
71573;BME280;59408;51.032;9.410;2022-12-24T06:51:53;98496.09;;;5.75;100.00
71573;BME280;59408;51.032;9.410;2022-12-24T06:54:20;98501.81;;;5.74;100.00
71573;BME280;59408;51.032;9.410;2022-12-24T06:56:46;98498.50;;;5.77;100.00
71573;BME280;59408;51.032;9.410;2022-12-24T06:59:14;98491.34;;;5.81;100.00
71573;BME280;59408;51.032;9.410;2022-12-24T07:01:41;98507.88;;;5.88;100.00
71573;BME280;59408;51.032;9.410;2022-12-24T07:04:08;98511.06;;;5.90;100.00
71573;BME280;59408;51.032;9.410;2022-12-24T07:06:41;98507.38;;;5.95;100.00
71573;BME280;59408;51.032;9.410;2022-12-24T07:09:11;98511.03;;;5.99;100.00
71573;BME280;59408;51.032;9.410;2022-12-24T07:11:38;98525.84;;;6.10;100.00
71573;BME280;59408;51.032;9.410;2022-12-24T07:14:05;98528.19;;;6.11;100.00
71573;BME280;59408;51.032;9.410;2022-12-24T07:16:33;98520.09;;;6.11;100.00
71573;BME280;59408;51.032;9.410;2022-12-24T07:19:00;98523.28;;;6.13;100.00
71573;BME280;59408;51.032;9.410;2022-12-24T07:21:26;98529.78;;;6.12;100.00
71573;BME280;59408;51.032;9.410;2022-12-24T07:23:53;98527.25;;;6.16;100.00
71573;BME280;59408;51.032;9.410;2022-12-24T07:26:20;98541.28;;;6.18;100.00
71573;BME280;59408;51.032;9.410;2022-12-24T07:28:46;98541.56;;;6.25;100.00
71573;BME280;59408;51.032;9.410;2022-12-24T07:31:13;98546.50;;;6.23;100.00
71573;BME280;59408;51.032;9.410;2022-12-24T07:33:41;98553.84;;;6.23;100.00
71573;BME280;59408;51.032;9.410;2022-12-24T07:36:13;98557.94;;;6.29;100.00
71573;BME280;59408;51.032;9.410;2022-12-24T07:38:42;98566.72;;;6.34;100.00
71573;BME280;59408;51.032;9.410;2022-12-24T07:41:08;98575.47;;;6.40;100.00
71573;BME280;59408;51.032;9.410;2022-12-24T07:43:35;98573.22;;;6.42;100.00
71573;BME280;59408;51.032;9.410;2022-12-24T07:46:02;98568.41;;;6.47;100.00
71573;BME280;59408;51.032;9.410;2022-12-24T07:48:30;98577.69;;;6.46;100.00
71573;BME280;59408;51.032;9.410;2022-12-24T07:50:58;98582.44;;;6.49;100.00
71573;BME280;59408;51.032;9.410;2022-12-24T07:53:26;98579.09;;;6.53;100.00
71573;BME280;59408;51.032;9.410;2022-12-24T07:55:53;98600.31;;;6.50;100.00
71573;BME280;59408;51.032;9.410;2022-12-24T07:58:20;98595.50;;;6.47;100.00
71573;BME280;59408;51.032;9.410;2022-12-24T08:00:47;98588.19;;;6.48;100.00
71573;BME280;59408;51.032;9.410;2022-12-24T08:03:15;98599.81;;;6.48;100.00
71573;BME280;59408;51.032;9.410;2022-12-24T08:05:42;98600.31;;;6.50;100.00
71573;BME280;59408;51.032;9.410;2022-12-24T08:08:10;98600.16;;;6.56;100.00
71573;BME280;59408;51.032;9.410;2022-12-24T08:10:37;98608.59;;;6.54;100.00
71573;BME280;59408;51.032;9.410;2022-12-24T08:13:04;98607.47;;;6.55;100.00
71573;BME280;59408;51.032;9.410;2022-12-24T08:15:31;98604.28;;;6.53;100.00
71573;BME280;59408;51.032;9.410;2022-12-24T08:17:58;98609.03;;;6.56;100.00
71573;BME280;59408;51.032;9.410;2022-12-24T08:20:24;98611.13;;;6.59;100.00
71573;BME280;59408;51.032;9.410;2022-12-24T08:22:51;98606.19;;;6.61;100.00
71573;BME280;59408;51.032;9.410;2022-12-24T08:25:19;98606.66;;;6.63;100.00
71573;BME280;59408;51.032;9.410;2022-12-24T08:27:46;98625.16;;;6.61;100.00
71573;BME280;59408;51.032;9.410;2022-12-24T08:30:13;98630.56;;;6.61;100.00
71573;BME280;59408;51.032;9.410;2022-12-24T08:32:46;98624.81;;;6.63;100.00
71573;BME280;59408;51.032;9.410;2022-12-24T08:35:13;98630.72;;;6.65;100.00
71573;BME280;59408;51.032;9.410;2022-12-24T08:37:40;98633.56;;;6.68;100.00
71573;BME280;59408;51.032;9.410;2022-12-24T08:40:07;98631.34;;;6.70;100.00
71573;BME280;59408;51.032;9.410;2022-12-24T08:42:36;98649.16;;;6.80;100.00
71573;BME280;59408;51.032;9.410;2022-12-24T08:45:03;98648.50;;;6.83;100.00
71573;BME280;59408;51.032;9.410;2022-12-24T08:47:30;98642.75;;;6.84;100.00
71573;BME280;59408;51.032;9.410;2022-12-24T08:49:56;98657.59;;;6.87;100.00
71573;BME280;59408;51.032;9.410;2022-12-24T08:52:23;98668.44;;;6.87;100.00
71573;BME280;59408;51.032;9.410;2022-12-24T08:54:50;98672.28;;;6.77;100.00
71573;BME280;59408;51.032;9.410;2022-12-24T08:57:16;98673.41;;;6.76;100.00
71573;BME280;59408;51.032;9.410;2022-12-24T08:59:44;98685.72;;;6.74;100.00
71573;BME280;59408;51.032;9.410;2022-12-24T09:02:11;98681.69;;;6.80;100.00
71573;BME280;59408;51.032;9.410;2022-12-24T09:04:38;98681.84;;;6.83;100.00
71573;BME280;59408;51.032;9.410;2022-12-24T09:07:06;98682.78;;;6.87;100.00
71573;BME280;59408;51.032;9.410;2022-12-24T09:09:33;98683.75;;;6.83;100.00
71573;BME280;59408;51.032;9.410;2022-12-24T09:12:04;98692.03;;;6.86;100.00
71573;BME280;59408;51.032;9.410;2022-12-24T09:14:31;98692.53;;;6.88;100.00
71573;BME280;59408;51.032;9.410;2022-12-24T09:16:59;98692.53;;;6.88;100.00
71573;BME280;59408;51.032;9.410;2022-12-24T09:19:26;98697.94;;;6.88;100.00
71573;BME280;59408;51.032;9.410;2022-12-24T09:21:53;98700.66;;;6.88;100.00
71573;BME280;59408;51.032;9.410;2022-12-24T09:24:20;98706.56;;;6.91;100.00
71573;BME280;59408;51.032;9.410;2022-12-24T09:26:47;98717.84;;;6.93;100.00
71573;BME280;59408;51.032;9.410;2022-12-24T09:29:21;98712.59;;;6.96;100.00
71573;BME280;59408;51.032;9.410;2022-12-24T09:31:47;98715.00;;;6.98;100.00
71573;BME280;59408;51.032;9.410;2022-12-24T09:34:16;98722.63;;;7.04;100.00
71573;BME280;59408;51.032;9.410;2022-12-24T09:36:42;98727.09;;;7.09;100.00
71573;BME280;59408;51.032;9.410;2022-12-24T09:39:09;98728.19;;;7.16;100.00
71573;BME280;59408;51.032;9.410;2022-12-24T09:41:42;98730.38;;;7.23;100.00
71573;BME280;59408;51.032;9.410;2022-12-24T09:44:21;98741.25;;;7.32;100.00
71573;BME280;59408;51.032;9.410;2022-12-24T09:46:52;98740.09;;;7.41;100.00
71573;BME280;59408;51.032;9.410;2022-12-24T09:49:22;98737.84;;;7.43;100.00
71573;BME280;59408;51.032;9.410;2022-12-24T09:51:54;98741.03;;;7.45;100.00
71573;BME280;59408;51.032;9.410;2022-12-24T09:54:24;98736.72;;;7.44;100.00
71573;BME280;59408;51.032;9.410;2022-12-24T09:56:53;98754.94;;;7.44;100.00
71573;BME280;59408;51.032;9.410;2022-12-24T09:59:24;98741.50;;;7.47;100.00
71573;BME280;59408;51.032;9.410;2022-12-24T10:01:53;98745.34;;;7.46;100.00
71573;BME280;59408;51.032;9.410;2022-12-24T10:04:26;98747.44;;;7.41;100.00
71573;BME280;59408;51.032;9.410;2022-12-24T10:07:01;98745.84;;;7.40;100.00
71573;BME280;59408;51.032;9.410;2022-12-24T10:09:40;98740.88;;;7.42;100.00
71573;BME280;59408;51.032;9.410;2022-12-24T10:12:14;98757.16;;;7.42;100.00
71573;BME280;59408;51.032;9.410;2022-12-24T10:14:53;98759.88;;;7.42;100.00
71573;BME280;59408;51.032;9.410;2022-12-24T10:17:33;98756.38;;;7.41;100.00
71573;BME280;59408;51.032;9.410;2022-12-24T10:20:24;98757.00;;;7.38;100.00
71573;BME280;59408;51.032;9.410;2022-12-24T10:23:01;98757.47;;;7.40;100.00
71573;BME280;59408;51.032;9.410;2022-12-24T10:25:34;98748.22;;;7.41;100.00
71573;BME280;59408;51.032;9.410;2022-12-24T10:28:13;98757.44;;;7.49;100.00
71573;BME280;59408;51.032;9.410;2022-12-24T10:30:40;98758.09;;;7.54;100.00
71573;BME280;59408;51.032;9.410;2022-12-24T10:33:14;98760.28;;;7.61;100.00
71573;BME280;59408;51.032;9.410;2022-12-24T10:35:47;98761.03;;;7.70;100.00
71573;BME280;59408;51.032;9.410;2022-12-24T10:38:15;98775.69;;;7.78;100.00
71573;BME280;59408;51.032;9.410;2022-12-24T10:40:43;98767.22;;;7.79;100.00
71573;BME280;59408;51.032;9.410;2022-12-24T10:43:13;98768.50;;;7.82;100.00
71573;BME280;59408;51.032;9.410;2022-12-24T10:45:45;98769.47;;;7.77;100.00
71573;BME280;59408;51.032;9.410;2022-12-24T10:48:17;98774.91;;;7.77;100.00
71573;BME280;59408;51.032;9.410;2022-12-24T10:50:53;98773.63;;;7.75;100.00
71573;BME280;59408;51.032;9.410;2022-12-24T10:53:26;98776.69;;;7.73;100.00
71573;BME280;59408;51.032;9.410;2022-12-24T10:56:02;98780.06;;;7.70;100.00
71573;BME280;59408;51.032;9.410;2022-12-24T10:58:29;98787.19;;;7.75;100.00
71573;BME280;59408;51.032;9.410;2022-12-24T11:00:56;98795.50;;;7.78;100.00
71573;BME280;59408;51.032;9.410;2022-12-24T11:03:28;98784.63;;;7.78;100.00
71573;BME280;59408;51.032;9.410;2022-12-24T11:06:09;98788.63;;;7.81;100.00
71573;BME280;59408;51.032;9.410;2022-12-24T11:08:37;98788.13;;;7.87;100.00
71573;BME280;59408;51.032;9.410;2022-12-24T11:11:06;98785.94;;;8.01;100.00
71573;BME280;59408;51.032;9.410;2022-12-24T11:13:36;98794.47;;;8.21;100.00
71573;BME280;59408;51.032;9.410;2022-12-24T11:16:07;98792.66;;;8.33;100.00
71573;BME280;59408;51.032;9.410;2022-12-24T11:18:37;98784.06;;;8.52;100.00
71573;BME280;59408;51.032;9.410;2022-12-24T11:21:23;98778.94;;;8.71;100.00
71573;BME280;59408;51.032;9.410;2022-12-24T11:23:53;98778.06;;;8.80;98.22
71573;BME280;59408;51.032;9.410;2022-12-24T11:26:22;98781.34;;;8.73;98.52
71573;BME280;59408;51.032;9.410;2022-12-24T11:29:03;98787.75;;;8.68;98.27
71573;BME280;59408;51.032;9.410;2022-12-24T11:31:30;98774.03;;;8.65;98.37
71573;BME280;59408;51.032;9.410;2022-12-24T11:33:57;98779.28;;;8.70;98.63
71573;BME280;59408;51.032;9.410;2022-12-24T11:36:29;98768.25;;;8.66;98.23
71573;BME280;59408;51.032;9.410;2022-12-24T11:38:58;98763.81;;;8.62;98.38
71573;BME280;59408;51.032;9.410;2022-12-24T11:41:25;98768.78;;;8.60;98.51
71573;BME280;59408;51.032;9.410;2022-12-24T11:43:59;98757.78;;;8.56;99.93
71573;BME280;59408;51.032;9.410;2022-12-24T11:46:37;98762.97;;;8.49;99.41
71573;BME280;59408;51.032;9.410;2022-12-24T11:49:13;98772.13;;;8.45;98.89
71573;BME280;59408;51.032;9.410;2022-12-24T11:52:00;98769.91;;;8.38;99.33
71573;BME280;59408;51.032;9.410;2022-12-24T11:54:31;98779.06;;;8.33;100.00
71573;BME280;59408;51.032;9.410;2022-12-24T11:57:02;98775.28;;;8.26;100.00
71573;BME280;59408;51.032;9.410;2022-12-24T11:59:30;98781.50;;;8.26;100.00
71573;BME280;59408;51.032;9.410;2022-12-24T12:02:01;98771.88;;;8.29;100.00
71573;BME280;59408;51.032;9.410;2022-12-24T12:04:35;98771.88;;;8.29;100.00
71573;BME280;59408;51.032;9.410;2022-12-24T12:07:12;98768.78;;;8.18;100.00
71573;BME280;59408;51.032;9.410;2022-12-24T12:09:43;98777.06;;;8.22;100.00
71573;BME280;59408;51.032;9.410;2022-12-24T12:12:14;98775.41;;;8.29;100.00
71573;BME280;59408;51.032;9.410;2022-12-24T12:14:47;98771.84;;;8.37;100.00
71573;BME280;59408;51.032;9.410;2022-12-24T12:17:25;98774.69;;;8.41;100.00
71573;BME280;59408;51.032;9.410;2022-12-24T12:19:57;98787.81;;;8.39;100.00
71573;BME280;59408;51.032;9.410;2022-12-24T12:22:32;98783.50;;;8.38;100.00
71573;BME280;59408;51.032;9.410;2022-12-24T12:25:01;98788.66;;;8.31;100.00
71573;BME280;59408;51.032;9.410;2022-12-24T12:27:32;98776.44;;;8.46;100.00
71573;BME280;59408;51.032;9.410;2022-12-24T12:30:03;98785.66;;;8.74;100.00
71573;BME280;59408;51.032;9.410;2022-12-24T12:32:38;98788.72;;;9.05;98.02
71573;BME280;59408;51.032;9.410;2022-12-24T12:35:15;98789.28;;;9.11;97.22
71573;BME280;59408;51.032;9.410;2022-12-24T12:37:47;98802.69;;;9.16;96.95
71573;BME280;59408;51.032;9.410;2022-12-24T12:40:16;98806.78;;;9.10;96.17
71573;BME280;59408;51.032;9.410;2022-12-24T12:42:49;98809.28;;;8.94;96.76
71573;BME280;59408;51.032;9.410;2022-12-24T12:45:32;98803.41;;;8.92;96.33
71573;BME280;59408;51.032;9.410;2022-12-24T12:48:12;98805.66;;;8.90;96.87
71573;BME280;59408;51.032;9.410;2022-12-24T12:50:46;98807.59;;;8.90;97.13
71573;BME280;59408;51.032;9.410;2022-12-24T12:53:27;98809.75;;;8.96;96.81
71573;BME280;59408;51.032;9.410;2022-12-24T12:56:00;98805.41;;;9.16;94.95
71573;BME280;59408;51.032;9.410;2022-12-24T12:58:31;98809.44;;;9.19;94.07
71573;BME280;59408;51.032;9.410;2022-12-24T13:01:04;98821.44;;;9.18;94.09
71573;BME280;59408;51.032;9.410;2022-12-24T13:03:49;98816.31;;;9.16;95.21
71573;BME280;59408;51.032;9.410;2022-12-24T13:06:28;98823.19;;;9.01;95.51
71573;BME280;59408;51.032;9.410;2022-12-24T13:09:14;98823.03;;;8.98;95.87
71573;BME280;59408;51.032;9.410;2022-12-24T13:11:57;98825.16;;;8.92;95.90
71573;BME280;59408;51.032;9.410;2022-12-24T13:14:38;98830.22;;;8.82;95.48
71573;BME280;59408;51.032;9.410;2022-12-24T13:17:32;98823.34;;;8.75;95.49
71573;BME280;59408;51.032;9.410;2022-12-24T13:20:15;98828.81;;;8.75;96.30